Time;durP1;ratioP1;P1;durP2;ratioP2;P2;SDS_P1;SDS_P2;PMS_P1;PMS_P2;Temp;Humidity;BMP_temperature;BMP_pressure;BME280_temperature;BME280_humidity;BME280_pressure;Samples;Min_cycle;Max_cycle;Signal;HPM_P1;HPM_P2
2022/07/30 00:02:54;;;;;;;6.88;3.95;;;;;;;;;;10197842;28;20069;-58
2022/07/30 00:07:53;;;;;;;9.20;3.50;;;;;;;;;;10197618;28;20073;-58
2022/07/30 00:12:51;;;;;;;5.30;3.83;;;;;;;;;;10197063;28;20056;-59
2022/07/30 00:17:51;;;;;;;4.70;4.13;;;;;;;;;;10197366;28;20846;-59
2022/07/30 00:22:49;;;;;;;6.25;3.47;;;;;;;;;;10196800;28;20046;-59
2022/07/30 00:27:48;;;;;;;4.97;4.03;;;;;;;;;;10196474;28;20080;-59
2022/07/30 00:32:46;;;;;;;3.72;3.17;;;;;;;;;;10194995;28;20050;-58
2022/07/30 00:37:46;;;;;;;5.28;3.35;;;;;;;;;;10196485;28;20072;-59
2022/07/30 00:42:45;;;;;;;3.90;3.42;;;;;;;;;;10196028;28;20069;-59
2022/07/30 00:47:44;;;;;;;4.93;4.15;;;;;;;;;;10194919;28;20126;-59
2022/07/30 00:52:42;;;;;;;6.28;4.20;;;;;;;;;;10195642;28;20073;-59
2022/07/30 00:57:43;;;;;;;5.93;3.75;;;;;;;;;;10195796;28;20053;-59
2022/07/30 01:02:41;;;;;;;9.23;3.45;;;;;;;;;;10193752;28;20053;-59
2022/07/30 01:07:39;;;;;;;4.85;3.50;;;;;;;;;;10194935;28;20081;-59
2022/07/30 01:12:38;;;;;;;5.35;4.00;;;;;;;;;;10195567;28;20042;-59
2022/07/30 01:17:38;;;;;;;4.38;3.72;;;;;;;;;;10193534;28;20593;-59
2022/07/30 01:22:45;;;;;;;7.90;4.03;;;;;;;;;;10193997;28;20053;-59
2022/07/30 01:27:47;;;;;;;7.80;4.25;;;;;;;;;;10193459;28;20057;-59
2022/07/30 01:32:46;;;;;;;4.88;3.17;;;;;;;;;;10194955;28;20068;-60
2022/07/30 01:37:46;;;;;;;5.68;3.67;;;;;;;;;;10194469;28;20077;-59
2022/07/30 01:42:48;;;;;;;3.97;3.67;;;;;;;;;;10192312;28;20046;-59
2022/07/30 01:47:46;;;;;;;7.15;4.20;;;;;;;;;;10192484;28;20081;-60
2022/07/30 01:52:47;;;;;;;5.60;3.90;;;;;;;;;;10191383;28;20404;-60
2022/07/30 01:57:48;;;;;;;10.85;4.63;;;;;;;;;;10194621;28;20046;-60
2022/07/30 02:02:46;;;;;;;4.93;3.95;;;;;;;;;;10192190;28;20058;-60
2022/07/30 02:07:48;;;;;;;5.60;3.70;;;;;;;;;;10192098;28;20082;-59
2022/07/30 02:12:50;;;;;;;6.80;4.35;;;;;;;;;;10191945;28;20053;-59
2022/07/30 02:17:54;;;;;;;7.93;4.13;;;;;;;;;;10191075;28;20451;-59
2022/07/30 02:22:54;;;;;;;;;;;;;;;;;;10194511;28;20057;-59
2022/07/30 02:27:57;;;;;;;8.63;5.13;;;;;;;;;;10192508;28;19967;-59
2022/07/30 02:32:58;;;;;;;9.00;5.53;;;;;;;;;;10191034;28;20050;-59
2022/07/30 02:37:59;;;;;;;8.25;4.53;;;;;;;;;;10191073;28;20045;-59
2022/07/30 02:43:01;;;;;;;6.97;5.05;;;;;;;;;;10190099;28;20408;-59
2022/07/30 02:48:01;;;;;;;7.18;4.50;;;;;;;;;;10190468;28;20092;-59
2022/07/30 02:53:01;;;;;;;8.32;5.22;;;;;;;;;;10193986;28;20061;-59
2022/07/30 02:58:02;;;;;;;8.50;5.45;;;;;;;;;;10196006;28;20046;-59
2022/07/30 03:03:02;;;;;;;9.50;4.93;;;;;;;;;;10196980;28;20604;-59
2022/07/30 03:08:01;;;;;;;6.88;5.35;;;;;;;;;;10197222;28;20496;-59
2022/07/30 03:13:01;;;;;;;11.30;5.70;;;;;;;;;;10197298;28;20410;-59
2022/07/30 03:18:00;;;;;;;13.35;5.45;;;;;;;;;;10196971;28;20507;-59
2022/07/30 03:23:01;;;;;;;6.10;5.47;;;;;;;;;;10196627;28;20046;-59
2022/07/30 03:28:02;;;;;;;7.05;5.40;;;;;;;;;;10196974;28;20077;-59
2022/07/30 03:33:01;;;;;;;13.85;5.95;;;;;;;;;;10199049;28;20092;-59
2022/07/30 03:38:00;;;;;;;6.93;5.53;;;;;;;;;;10196201;28;20057;-59
2022/07/30 03:42:58;;;;;;;9.55;6.55;;;;;;;;;;10195968;28;20427;-58
2022/07/30 03:47:58;;;;;;;11.50;7.30;;;;;;;;;;10195953;28;20100;-58
2022/07/30 03:52:57;;;;;;;7.05;6.07;;;;;;;;;;10195265;28;20054;-60
2022/07/30 03:57:56;;;;;;;10.30;6.20;;;;;;;;;;10196005;28;20042;-59
2022/07/30 04:03:03;;;;;;;9.43;6.93;;;;;;;;;;10195993;28;20054;-59
2022/07/30 04:08:17;;;;;;;8.63;6.60;;;;;;;;;;10195113;28;20565;-59
2022/07/30 04:13:18;;;;;;;9.10;6.22;;;;;;;;;;10196218;28;20041;-59
2022/07/30 04:18:20;;;;;;;7.32;6.63;;;;;;;;;;10195155;28;20057;-59
2022/07/30 04:23:18;;;;;;;11.07;6.38;;;;;;;;;;10195209;28;20069;-59
2022/07/30 04:28:18;;;;;;;11.20;7.18;;;;;;;;;;10195101;28;20505;-60
2022/07/30 04:33:17;;;;;;;9.85;6.97;;;;;;;;;;10195257;28;20528;-60
2022/07/30 04:38:39;;;;;;;8.27;6.80;;;;;;;;;;10190701;28;20050;-58
2022/07/30 04:43:38;;;;;;;10.93;8.50;;;;;;;;;;10194142;28;20042;-59
2022/07/30 04:48:37;;;;;;;7.82;7.03;;;;;;;;;;10193414;28;20088;-60
2022/07/30 04:53:43;;;;;;;8.60;7.68;;;;;;;;;;10193711;28;20056;-59
2022/07/30 04:58:43;;;;;;;10.15;8.07;;;;;;;;;;10193331;28;20080;-58
2022/07/30 05:03:42;;;;;;;9.63;7.85;;;;;;;;;;10194614;28;20384;-58
2022/07/30 05:08:41;;;;;;;11.75;7.97;;;;;;;;;;10192888;28;20529;-57
2022/07/30 05:13:43;;;;;;;11.77;8.68;;;;;;;;;;10191497;28;20073;-58
2022/07/30 05:18:44;;;;;;;10.27;8.43;;;;;;;;;;10191396;28;20053;-58
2022/07/30 05:23:43;;;;;;;11.60;8.50;;;;;;;;;;10192802;28;20046;-59
2022/07/30 05:29:07;;;;;;;12.68;10.35;;;;;;;;;;10192425;28;20065;-58
2022/07/30 05:34:15;;;;;;;12.07;10.40;;;;;;;;;;10192288;28;20492;-59
2022/07/30 05:39:16;;;;;;;11.15;9.60;;;;;;;;;;10192971;28;20065;-59
2022/07/30 05:44:34;;;;;;;11.60;9.00;;;;;;;;;;10199698;28;20046;-59
2022/07/30 05:49:33;;;;;;;11.50;9.52;;;;;;;;;;10192484;28;20054;-59
2022/07/30 05:54:38;;;;;;;9.55;8.63;;;;;;;;;;10191465;28;20144;-58
2022/07/30 05:59:46;;;;;;;15.00;8.13;;;;;;;;;;10199202;28;20084;-59
2022/07/30 06:04:50;;;;;;;9.38;8.48;;;;;;;;;;10193811;28;20534;-59
2022/07/30 06:09:49;;;;;;;9.07;8.20;;;;;;;;;;10191934;28;20088;-58
2022/07/30 06:14:48;;;;;;;15.00;9.23;;;;;;;;;;10191900;28;20054;-59
2022/07/30 06:19:54;;;;;;;9.82;8.85;;;;;;;;;;10191192;28;20085;-59
2022/07/30 06:24:55;;;;;;;9.25;8.35;;;;;;;;;;10191832;28;20042;-60
2022/07/30 06:29:57;;;;;;;13.27;10.38;;;;;;;;;;10198362;28;20097;-59
2022/07/30 06:34:56;;;;;;;11.82;9.68;;;;;;;;;;10199548;28;20053;-60
2022/07/30 06:40:02;;;;;;;11.52;9.48;;;;;;;;;;10198977;28;20056;-59
2022/07/30 06:45:25;;;;;;;11.38;8.27;;;;;;;;;;10195146;28;20046;-60
2022/07/30 06:50:42;;;;;;;13.52;7.97;;;;;;;;;;10200091;28;20086;-59
2022/07/30 06:55:41;;;;;;;12.00;7.38;;;;;;;;;;10200094;28;20459;-59
2022/07/30 07:00:41;;;;;;;11.68;7.97;;;;;;;;;;10198254;28;20050;-60
2022/07/30 07:05:42;;;;;;;8.25;7.50;;;;;;;;;;10198288;28;20053;-59
2022/07/30 07:10:41;;;;;;;10.43;9.43;;;;;;;;;;10197476;28;20080;-59
2022/07/30 07:15:56;;;;;;;9.98;7.70;;;;;;;;;;10197413;28;20412;-59
2022/07/30 07:20:57;;;;;;;12.32;7.72;;;;;;;;;;10197171;28;20076;-59
2022/07/30 07:25:55;;;;;;;12.57;7.88;;;;;;;;;;10197657;28;20060;-59
2022/07/30 07:30:55;;;;;;;7.78;7.10;;;;;;;;;;10197917;28;20069;-59
2022/07/30 07:35:54;;;;;;;9.57;7.97;;;;;;;;;;10197401;28;20058;-59
2022/07/30 07:40:57;;;;;;;9.70;8.32;;;;;;;;;;10196074;28;20065;-59
2022/07/30 07:45:58;;;;;;;7.93;7.28;;;;;;;;;;10196722;28;20060;-60
2022/07/30 07:51:01;;;;;;;8.57;6.93;;;;;;;;;;10196697;28;20060;-59
2022/07/30 07:56:02;;;;;;;8.93;7.90;;;;;;;;;;10196279;28;20057;-59
2022/07/30 08:01:03;;;;;;;11.80;7.05;;;;;;;;;;10196305;28;20511;-59
2022/07/30 08:06:36;;;;;;;;;;;;;;;;;;10171687;28;20534;-58
2022/07/30 08:11:54;;;;;;;8.88;7.15;;;;;;;;;;10192564;28;19972;-59
2022/07/30 08:17:13;;;;;;;8.80;7.00;;;;;;;;;;10200535;28;20097;-59
2022/07/30 08:22:38;;;;;;;8.02;7.18;;;;;;;;;;10194925;28;20112;-59
2022/07/30 08:27:36;;;;;;;7.45;5.60;;;;;;;;;;10194506;28;20046;-59
2022/07/30 08:32:38;;;;;;;7.47;6.03;;;;;;;;;;10194915;28;20200;-59
2022/07/30 08:37:39;;;;;;;6.30;5.70;;;;;;;;;;10194770;28;20068;-59
2022/07/30 08:42:38;;;;;;;7.43;5.53;;;;;;;;;;10194771;28;20073;-59
2022/07/30 08:47:40;;;;;;;8.00;7.20;;;;;;;;;;10193960;28;20050;-59
2022/07/30 08:52:42;;;;;;;8.52;6.95;;;;;;;;;;10197153;28;20096;-60
2022/07/30 08:57:41;;;;;;;10.57;7.70;;;;;;;;;;10193690;28;20141;-59
2022/07/30 09:02:40;;;;;;;8.75;6.43;;;;;;;;;;10195653;28;20037;-58
2022/07/30 09:07:39;;;;;;;10.63;7.65;;;;;;;;;;10195157;28;20057;-59
2022/07/30 09:12:43;;;;;;;7.13;6.03;;;;;;;;;;10193236;28;20077;-59
2022/07/30 09:17:57;;;;;;;7.43;5.90;;;;;;;;;;10193056;28;20046;-59
2022/07/30 09:22:58;;;;;;;10.95;6.78;;;;;;;;;;10192947;28;20049;-59
2022/07/30 09:27:59;;;;;;;9.13;7.00;;;;;;;;;;10196332;28;20042;-59
2022/07/30 09:33:31;;;;;;;10.13;6.50;;;;;;;;;;10195446;28;20092;-59
2022/07/30 09:38:53;;;;;;;9.25;6.07;;;;;;;;;;10194002;28;20054;-59
2022/07/30 09:44:10;;;;;;;6.78;5.95;;;;;;;;;;10201700;28;20344;-59
2022/07/30 09:49:15;;;;;;;7.50;5.18;;;;;;;;;;10192906;28;20050;-59
2022/07/30 09:54:14;;;;;;;7.28;5.97;;;;;;;;;;10192492;28;20451;-59
2022/07/30 09:59:27;;;;;;;6.70;6.03;;;;;;;;;;10191941;28;20062;-59
2022/07/30 10:04:36;;;;;;;6.47;5.70;;;;;;;;;;10199176;28;20046;-58
2022/07/30 10:09:44;;;;;;;7.35;5.10;;;;;;;;;;10200356;28;20050;-59
2022/07/30 10:14:46;;;;;;;11.00;6.32;;;;;;;;;;10201516;28;20480;-59
2022/07/30 10:19:49;;;;;;;7.43;5.38;;;;;;;;;;10199354;28;20057;-59
2022/07/30 10:25:17;;;;;;;8.90;6.00;;;;;;;;;;10200663;28;20073;-59
2022/07/30 10:30:54;;;;;;;7.60;5.40;;;;;;;;;;10200522;28;20056;-60
2022/07/30 10:35:54;;;;;;;7.72;5.53;;;;;;;;;;10200117;28;20061;-59
2022/07/30 10:40:57;;;;;;;5.65;5.15;;;;;;;;;;10199888;28;20041;-60
2022/07/30 10:45:59;;;;;;;9.43;4.70;;;;;;;;;;10200249;28;20050;-62
2022/07/30 10:51:02;;;;;;;5.85;5.35;;;;;;;;;;10199556;28;20073;-60
2022/07/30 10:56:11;;;;;;;5.75;4.95;;;;;;;;;;10199527;28;20096;-60
2022/07/30 11:01:10;;;;;;;7.55;5.47;;;;;;;;;;10199292;28;20070;-59
2022/07/30 11:06:27;;;;;;;8.63;6.35;;;;;;;;;;10199215;28;20053;-60
2022/07/30 11:11:45;;;;;;;5.32;4.82;;;;;;;;;;10199523;28;20085;-59
2022/07/30 11:17:03;;;;;;;4.28;3.80;;;;;;;;;;10198611;28;20514;-59
2022/07/30 11:22:24;;;;;;;4.82;4.38;;;;;;;;;;10199305;28;20088;-59
2022/07/30 11:27:35;;;;;;;5.38;4.82;;;;;;;;;;10198680;28;20476;-59
2022/07/30 11:32:35;;;;;;;5.93;4.50;;;;;;;;;;10197635;28;20543;-58
2022/07/30 11:37:54;;;;;;;6.47;4.50;;;;;;;;;;10198219;28;20418;-59
2022/07/30 11:43:08;;;;;;;7.05;4.35;;;;;;;;;;10198434;28;20069;-59
2022/07/30 11:48:09;;;;;;;8.23;4.90;;;;;;;;;;10196816;28;20064;-60
2022/07/30 11:53:10;;;;;;;6.88;5.13;;;;;;;;;;10197112;28;20069;-60
2022/07/30 11:58:09;;;;;;;7.90;5.15;;;;;;;;;;10197842;28;20082;-59
2022/07/30 12:03:10;;;;;;;5.25;4.85;;;;;;;;;;10197166;28;20097;-59
2022/07/30 12:08:10;;;;;;;4.93;4.43;;;;;;;;;;10197049;28;20046;-59
2022/07/30 12:13:28;;;;;;;5.60;4.32;;;;;;;;;;10196726;28;20511;-59
2022/07/30 12:18:43;;;;;;;5.82;5.03;;;;;;;;;;10195336;28;20078;-59
2022/07/30 12:23:44;;;;;;;4.97;4.57;;;;;;;;;;10185293;28;20508;-59
2022/07/30 12:28:42;;;;;;;5.22;4.72;;;;;;;;;;10114963;28;20548;-59
2022/07/30 12:33:40;;;;;;;5.75;4.55;;;;;;;;;;10172169;28;20073;-59
2022/07/30 12:38:46;;;;;;;6.53;4.03;;;;;;;;;;10161063;28;20073;-59
2022/07/30 12:43:47;;;;;;;6.05;4.60;;;;;;;;;;10158908;28;20088;-59
2022/07/30 12:48:49;;;;;;;5.03;4.53;;;;;;;;;;10170337;28;20062;-59
2022/07/30 12:53:48;;;;;;;5.97;4.90;;;;;;;;;;10169607;28;20076;-59
2022/07/30 12:58:47;;;;;;;4.75;4.30;;;;;;;;;;10171668;28;20089;-60
2022/07/30 13:03:46;;;;;;;6.75;4.55;;;;;;;;;;10186631;28;20572;-59
2022/07/30 13:08:50;;;;;;;4.50;4.07;;;;;;;;;;10172972;28;20124;-60
2022/07/30 13:13:49;;;;;;;5.32;4.82;;;;;;;;;;10158160;28;20074;-59
2022/07/30 13:18:47;;;;;;;7.15;4.07;;;;;;;;;;10184629;28;20088;-60
2022/07/30 13:23:45;;;;;;;4.70;4.30;;;;;;;;;;10194359;28;20046;-60
2022/07/30 13:28:45;;;;;;;4.07;3.78;;;;;;;;;;10193749;28;20061;-58
2022/07/30 13:33:44;;;;;;;4.20;3.72;;;;;;;;;;10192796;28;20065;-59
2022/07/30 13:38:42;;;;;;;8.00;4.13;;;;;;;;;;10189274;28;20077;-59
2022/07/30 13:43:41;;;;;;;5.05;4.32;;;;;;;;;;10189468;28;20076;-59
2022/07/30 13:48:40;;;;;;;5.40;4.25;;;;;;;;;;10191357;28;20049;-59
2022/07/30 13:53:39;;;;;;;3.97;3.67;;;;;;;;;;10193434;28;20564;-59
2022/07/30 13:58:37;;;;;;;9.20;4.45;;;;;;;;;;10193105;28;20057;-59
2022/07/30 14:03:35;;;;;;;4.85;4.35;;;;;;;;;;10192059;28;20077;-59
2022/07/30 14:08:35;;;;;;;4.72;4.10;;;;;;;;;;10193641;28;20076;-59
2022/07/30 14:13:33;;;;;;;6.63;5.22;;;;;;;;;;10192377;28;20484;-59
2022/07/30 14:18:32;;;;;;;4.95;4.45;;;;;;;;;;10192606;28;20086;-59
2022/07/30 14:23:30;;;;;;;4.38;3.97;;;;;;;;;;10192508;28;20315;-60
2022/07/30 14:28:30;;;;;;;4.80;4.18;;;;;;;;;;10192854;28;20077;-60
2022/07/30 14:33:28;;;;;;;5.75;4.68;;;;;;;;;;10192483;28;20081;-60
2022/07/30 14:38:26;;;;;;;8.73;8.02;;;;;;;;;;10166189;28;20108;-59
2022/07/30 14:43:26;;;;;;;4.35;3.70;;;;;;;;;;10133918;28;20062;-59
2022/07/30 14:48:26;;;;;;;6.85;4.38;;;;;;;;;;10161923;28;20100;-59
2022/07/30 14:53:24;;;;;;;6.45;5.38;;;;;;;;;;10172837;28;20076;-59
2022/07/30 14:58:23;;;;;;;7.90;6.68;;;;;;;;;;10172223;28;20042;-60
2022/07/30 15:03:21;;;;;;;7.50;4.18;;;;;;;;;;10162491;28;20093;-59
2022/07/30 15:08:24;;;;;;;5.38;4.88;;;;;;;;;;10152613;28;20074;-59
2022/07/30 15:13:22;;;;;;;5.60;5.10;;;;;;;;;;10131509;28;20077;-59
2022/07/30 15:18:23;;;;;;;6.10;4.78;;;;;;;;;;10156069;28;20070;-59
2022/07/30 15:23:22;;;;;;;5.70;5.20;;;;;;;;;;10181861;28;20468;-60
2022/07/30 15:28:22;;;;;;;4.78;4.28;;;;;;;;;;10196512;28;20081;-59
2022/07/30 15:33:21;;;;;;;4.57;4.15;;;;;;;;;;10198796;28;20078;-59
2022/07/30 15:38:19;;;;;;;4.55;4.25;;;;;;;;;;10198194;28;20073;-59
2022/07/30 15:43:17;;;;;;;4.85;4.35;;;;;;;;;;10195001;28;20081;-59
2022/07/30 15:48:17;;;;;;;7.03;4.97;;;;;;;;;;10194521;28;20073;-59
2022/07/30 15:53:24;;;;;;;7.72;7.07;;;;;;;;;;10193848;28;20073;-59
2022/07/30 15:58:22;;;;;;;5.10;4.68;;;;;;;;;;10197740;28;20081;-60
2022/07/30 16:03:22;;;;;;;7.63;5.78;;;;;;;;;;10195825;28;20297;-60
2022/07/30 16:08:21;;;;;;;7.50;6.80;;;;;;;;;;10198076;28;20046;-60
2022/07/30 16:13:19;;;;;;;9.23;8.32;;;;;;;;;;10197817;28;20522;-58
2022/07/30 16:18:17;;;;;;;7.15;6.28;;;;;;;;;;10197033;28;20506;-60
2022/07/30 16:23:17;;;;;;;9.30;8.48;;;;;;;;;;10196365;28;20089;-60
2022/07/30 16:28:18;;;;;;;6.47;5.40;;;;;;;;;;10197059;28;20080;-59
2022/07/30 16:33:17;;;;;;;10.27;5.95;;;;;;;;;;10196889;28;20073;-59
2022/07/30 16:38:17;;;;;;;10.25;5.75;;;;;;;;;;10197018;28;20053;-58
2022/07/30 16:43:15;;;;;;;8.88;5.72;;;;;;;;;;10197368;28;20046;-59
2022/07/30 16:48:17;;;;;;;10.27;5.90;;;;;;;;;;10196795;28;20081;-59
2022/07/30 16:53:17;;;;;;;5.90;4.70;;;;;;;;;;10196506;28;20100;-59
2022/07/30 16:58:15;;;;;;;6.45;5.50;;;;;;;;;;10196705;28;20447;-59
2022/07/30 17:03:13;;;;;;;7.72;5.22;;;;;;;;;;10196411;28;20509;-59
2022/07/30 17:08:18;;;;;;;5.47;4.97;;;;;;;;;;10196168;28;20041;-59
2022/07/30 17:13:22;;;;;;;6.32;5.18;;;;;;;;;;10195267;28;20085;-59
2022/07/30 17:18:20;;;;;;;9.57;5.13;;;;;;;;;;10194630;28;20049;-59
2022/07/30 17:23:20;;;;;;;14.40;4.80;;;;;;;;;;10178228;28;20076;-59
2022/07/30 17:28:20;;;;;;;7.05;5.55;;;;;;;;;;10156450;28;20058;-59
2022/07/30 17:33:24;;;;;;;9.40;4.78;;;;;;;;;;10133988;28;20082;-59
2022/07/30 17:38:26;;;;;;;6.00;4.88;;;;;;;;;;10154768;28;20050;-58
2022/07/30 17:43:25;;;;;;;13.33;4.93;;;;;;;;;;10152427;28;20044;-60
2022/07/30 17:48:23;;;;;;;8.98;5.53;;;;;;;;;;10174770;28;20492;-57
2022/07/30 17:53:21;;;;;;;6.05;5.28;;;;;;;;;;10155062;28;20089;-58
2022/07/30 17:58:21;;;;;;;8.65;5.50;;;;;;;;;;10154406;28;20034;-59
2022/07/30 18:03:19;;;;;;;6.05;4.32;;;;;;;;;;10179475;28;20080;-59
2022/07/30 18:08:18;;;;;;;5.97;4.78;;;;;;;;;;10194316;28;20041;-59
2022/07/30 18:13:16;;;;;;;7.47;4.82;;;;;;;;;;10155474;28;20677;-59
2022/07/30 18:18:25;;;;;;;8.70;3.95;;;;;;;;;;10153639;28;20077;-59
2022/07/30 18:23:23;;;;;;;5.30;4.45;;;;;;;;;;10168068;28;20039;-58
2022/07/30 18:28:31;;;;;;;5.70;4.75;;;;;;;;;;10169742;28;20097;-59
2022/07/30 18:33:31;;;;;;;9.18;5.60;;;;;;;;;;10200288;28;20503;-59
2022/07/30 18:38:32;;;;;;;6.97;4.50;;;;;;;;;;10143008;28;20103;-60
2022/07/30 18:43:31;;;;;;;5.65;4.55;;;;;;;;;;10120851;28;20511;-60
2022/07/30 18:48:47;;;;;;;7.50;5.28;;;;;;;;;;10127107;28;20520;-59
2022/07/30 18:53:46;;;;;;;8.70;4.80;;;;;;;;;;10121254;28;20511;-59
2022/07/30 18:58:44;;;;;;;5.10;4.70;;;;;;;;;;10120561;28;20477;-58
2022/07/30 19:03:44;;;;;;;4.63;4.20;;;;;;;;;;10120041;28;20051;-61
2022/07/30 19:08:44;;;;;;;8.30;4.82;;;;;;;;;;10148192;28;20538;-59
2022/07/30 19:13:42;;;;;;;5.10;4.70;;;;;;;;;;10194809;28;20701;-59
2022/07/30 19:18:40;;;;;;;4.40;4.00;;;;;;;;;;10198948;28;20057;-59
2022/07/30 19:23:39;;;;;;;8.57;5.63;;;;;;;;;;10179576;28;20073;-59
2022/07/30 19:28:38;;;;;;;4.85;4.45;;;;;;;;;;10178105;28;20062;-59
2022/07/30 19:33:37;;;;;;;8.75;4.97;;;;;;;;;;10175383;28;20085;-59
2022/07/30 19:38:38;;;;;;;4.93;4.50;;;;;;;;;;10177907;28;20043;-59
2022/07/30 19:43:37;;;;;;;6.22;4.75;;;;;;;;;;10170441;28;20072;-59
2022/07/30 19:48:37;;;;;;;5.93;4.78;;;;;;;;;;10176550;28;20062;-59
2022/07/30 19:53:35;;;;;;;5.72;5.22;;;;;;;;;;10175299;28;20070;-59
2022/07/30 19:58:35;;;;;;;5.63;5.10;;;;;;;;;;10165947;28;20073;-59
2022/07/30 20:03:34;;;;;;;12.57;8.45;;;;;;;;;;10174485;28;20034;-58
2022/07/30 20:08:35;;;;;;;17.80;7.68;;;;;;;;;;10175380;28;20069;-59
2022/07/30 20:13:36;;;;;;;8.95;5.10;;;;;;;;;;10172947;28;20042;-58
2022/07/30 20:18:44;;;;;;;22.35;5.05;;;;;;;;;;10177709;28;20084;-58
2022/07/30 20:24:04;;;;;;;7.90;4.50;;;;;;;;;;10179995;28;20081;-59
2022/07/30 20:29:04;;;;;;;16.63;4.43;;;;;;;;;;10182622;28;20450;-59
2022/07/30 20:34:16;;;;;;;9.98;4.70;;;;;;;;;;10156504;28;20073;-58
2022/07/30 20:39:17;;;;;;;14.38;4.63;;;;;;;;;;10154915;28;20050;-59
2022/07/30 20:44:17;;;;;;;5.80;4.55;;;;;;;;;;10163960;28;20073;-59
2022/07/30 20:49:20;;;;;;;13.27;5.70;;;;;;;;;;10174795;28;20052;-59
2022/07/30 20:54:32;;;;;;;7.18;5.80;;;;;;;;;;10171474;28;20080;-59
2022/07/30 20:59:34;;;;;;;9.52;6.82;;;;;;;;;;10186849;28;20037;-59
2022/07/30 21:04:32;;;;;;;9.23;5.88;;;;;;;;;;10194666;28;20046;-59
2022/07/30 21:09:32;;;;;;;9.90;4.30;;;;;;;;;;10195667;28;20052;-59
2022/07/30 21:14:51;;;;;;;8.00;4.40;;;;;;;;;;10194964;28;20108;-59
2022/07/30 21:19:49;;;;;;;6.50;3.85;;;;;;;;;;10194891;28;20046;-59
2022/07/30 21:24:49;;;;;;;8.10;4.88;;;;;;;;;;10195323;28;20049;-59
2022/07/30 21:29:47;;;;;;;4.60;3.72;;;;;;;;;;10194984;28;20052;-59
2022/07/30 21:34:46;;;;;;;6.18;4.07;;;;;;;;;;10194265;28;20073;-59
2022/07/30 21:39:46;;;;;;;3.88;3.55;;;;;;;;;;10194438;28;20499;-59
2022/07/30 21:44:45;;;;;;;10.55;4.75;;;;;;;;;;10194136;28;20038;-59
2022/07/30 21:49:43;;;;;;;5.03;4.45;;;;;;;;;;10192745;28;20055;-58
2022/07/30 21:54:42;;;;;;;4.57;3.40;;;;;;;;;;10194000;28;20525;-58
2022/07/30 21:59:45;;;;;;;;;;;;;;;;;;10199871;28;20526;-58
2022/07/30 22:04:45;;;;;;;4.75;3.95;;;;;;;;;;10202055;28;19960;-59
2022/07/30 22:09:47;;;;;;;3.83;3.53;;;;;;;;;;10201869;28;20118;-59
2022/07/30 22:14:45;;;;;;;4.32;3.95;;;;;;;;;;10201620;28;20089;-59
2022/07/30 22:19:48;;;;;;;5.25;4.25;;;;;;;;;;10200074;28;20086;-59
2022/07/30 22:24:46;;;;;;;9.15;3.60;;;;;;;;;;10194376;28;20061;-59
2022/07/30 22:29:46;;;;;;;5.57;3.58;;;;;;;;;;10199505;28;20073;-59
2022/07/30 22:34:45;;;;;;;5.47;3.97;;;;;;;;;;10176218;28;20077;-59
2022/07/30 22:39:45;;;;;;;6.15;4.43;;;;;;;;;;10175979;28;20141;-57
2022/07/30 22:44:49;;;;;;;5.85;3.53;;;;;;;;;;10179515;28;20053;-60
2022/07/30 22:49:48;;;;;;;5.43;3.88;;;;;;;;;;10169030;28;20424;-59
2022/07/30 22:54:56;;;;;;;7.05;4.13;;;;;;;;;;10160688;28;20096;-59
2022/07/30 23:00:07;;;;;;;4.60;3.97;;;;;;;;;;10160251;28;20550;-59
2022/07/30 23:05:09;;;;;;;7.15;3.70;;;;;;;;;;10159581;28;20077;-58
2022/07/30 23:10:09;;;;;;;8.30;3.60;;;;;;;;;;10158801;28;20046;-59
2022/07/30 23:15:15;;;;;;;5.50;3.80;;;;;;;;;;10159152;28;20078;-58
2022/07/30 23:20:14;;;;;;;5.70;3.42;;;;;;;;;;10159719;28;20453;-58
2022/07/30 23:25:14;;;;;;;4.65;3.83;;;;;;;;;;10159953;28;20042;-59
2022/07/30 23:30:12;;;;;;;6.65;3.88;;;;;;;;;;10159346;28;20097;-58
2022/07/30 23:35:11;;;;;;;6.03;3.65;;;;;;;;;;10159329;28;20088;-58
2022/07/30 23:40:10;;;;;;;3.45;3.15;;;;;;;;;;10157144;28;20531;-58
2022/07/30 23:45:10;;;;;;;3.92;3.63;;;;;;;;;;10159213;28;20043;-58
2022/07/30 23:50:09;;;;;;;5.28;3.58;;;;;;;;;;10158954;28;20053;-58
2022/07/30 23:55:07;;;;;;;3.60;3.30;;;;;;;;;;10157624;28;20078;-58
